sensor_id;sensor_type;location;lat;lon;timestamp;P1;durP1;ratioP1;P2;durP2;ratioP2
4049;SDS011;2039;50.894;6.888;2023-06-14T00:00:20;72.23;;;7.63;;
4049;SDS011;2039;50.894;6.888;2023-06-14T00:02:46;73.70;;;7.57;;
4049;SDS011;2039;50.894;6.888;2023-06-14T00:05:13;72.70;;;7.40;;
4049;SDS011;2039;50.894;6.888;2023-06-14T00:07:39;73.37;;;7.60;;
4049;SDS011;2039;50.894;6.888;2023-06-14T00:10:11;72.20;;;7.67;;
4049;SDS011;2039;50.894;6.888;2023-06-14T00:12:39;72.70;;;8.40;;
4049;SDS011;2039;50.894;6.888;2023-06-14T00:15:05;77.80;;;7.70;;
4049;SDS011;2039;50.894;6.888;2023-06-14T00:17:31;73.87;;;8.27;;
4049;SDS011;2039;50.894;6.888;2023-06-14T00:19:57;72.40;;;8.10;;
4049;SDS011;2039;50.894;6.888;2023-06-14T00:22:23;74.27;;;8.33;;
4049;SDS011;2039;50.894;6.888;2023-06-14T00:24:50;74.07;;;8.53;;
4049;SDS011;2039;50.894;6.888;2023-06-14T00:27:16;72.47;;;8.00;;
4049;SDS011;2039;50.894;6.888;2023-06-14T00:29:42;72.60;;;7.93;;
4049;SDS011;2039;50.894;6.888;2023-06-14T00:32:10;73.10;;;8.50;;
4049;SDS011;2039;50.894;6.888;2023-06-14T00:34:36;73.87;;;8.17;;
4049;SDS011;2039;50.894;6.888;2023-06-14T00:37:02;74.77;;;9.47;;
4049;SDS011;2039;50.894;6.888;2023-06-14T00:39:27;76.20;;;8.20;;
4049;SDS011;2039;50.894;6.888;2023-06-14T00:44:21;77.10;;;8.80;;
4049;SDS011;2039;50.894;6.888;2023-06-14T00:46:47;75.93;;;8.90;;
4049;SDS011;2039;50.894;6.888;2023-06-14T00:49:16;73.10;;;8.40;;
4049;SDS011;2039;50.894;6.888;2023-06-14T00:51:43;72.97;;;7.70;;
4049;SDS011;2039;50.894;6.888;2023-06-14T00:54:08;72.70;;;7.80;;
4049;SDS011;2039;50.894;6.888;2023-06-14T00:56:38;74.90;;;8.37;;
4049;SDS011;2039;50.894;6.888;2023-06-14T00:59:04;72.60;;;7.70;;
4049;SDS011;2039;50.894;6.888;2023-06-14T01:01:31;74.30;;;8.20;;
4049;SDS011;2039;50.894;6.888;2023-06-14T01:04:00;73.17;;;8.37;;
4049;SDS011;2039;50.894;6.888;2023-06-14T01:11:50;72.80;;;7.67;;
4049;SDS011;2039;50.894;6.888;2023-06-14T01:14:23;73.03;;;8.43;;
4049;SDS011;2039;50.894;6.888;2023-06-14T01:16:50;73.70;;;8.17;;
4049;SDS011;2039;50.894;6.888;2023-06-14T01:19:18;75.97;;;8.33;;
4049;SDS011;2039;50.894;6.888;2023-06-14T01:21:47;72.37;;;8.33;;
4049;SDS011;2039;50.894;6.888;2023-06-14T01:24:16;81.27;;;8.30;;
4049;SDS011;2039;50.894;6.888;2023-06-14T01:26:44;72.70;;;7.87;;
4049;SDS011;2039;50.894;6.888;2023-06-14T01:29:12;74.27;;;8.20;;
4049;SDS011;2039;50.894;6.888;2023-06-14T01:31:42;74.23;;;9.00;;
4049;SDS011;2039;50.894;6.888;2023-06-14T01:34:09;72.60;;;8.57;;
4049;SDS011;2039;50.894;6.888;2023-06-14T01:36:35;74.87;;;8.43;;
4049;SDS011;2039;50.894;6.888;2023-06-14T01:39:05;73.27;;;9.10;;
4049;SDS011;2039;50.894;6.888;2023-06-14T01:41:31;73.20;;;8.43;;
4049;SDS011;2039;50.894;6.888;2023-06-14T01:43:58;73.63;;;9.77;;
4049;SDS011;2039;50.894;6.888;2023-06-14T01:46:24;76.20;;;9.17;;
4049;SDS011;2039;50.894;6.888;2023-06-14T01:48:50;75.13;;;10.13;;
4049;SDS011;2039;50.894;6.888;2023-06-14T01:51:16;74.73;;;9.23;;
4049;SDS011;2039;50.894;6.888;2023-06-14T01:53:42;73.00;;;9.57;;
4049;SDS011;2039;50.894;6.888;2023-06-14T01:56:08;72.27;;;8.67;;
4049;SDS011;2039;50.894;6.888;2023-06-14T01:58:33;74.37;;;9.87;;
4049;SDS011;2039;50.894;6.888;2023-06-14T02:01:00;74.83;;;10.30;;
4049;SDS011;2039;50.894;6.888;2023-06-14T02:03:26;73.47;;;9.97;;
4049;SDS011;2039;50.894;6.888;2023-06-14T02:05:52;72.90;;;11.47;;
4049;SDS011;2039;50.894;6.888;2023-06-14T02:08:19;73.87;;;11.73;;
4049;SDS011;2039;50.894;6.888;2023-06-14T02:10:45;73.80;;;12.60;;
4049;SDS011;2039;50.894;6.888;2023-06-14T02:13:13;75.07;;;13.00;;
4049;SDS011;2039;50.894;6.888;2023-06-14T02:15:39;77.27;;;12.47;;
4049;SDS011;2039;50.894;6.888;2023-06-14T02:18:05;77.50;;;13.73;;
4049;SDS011;2039;50.894;6.888;2023-06-14T02:20:31;73.70;;;12.33;;
4049;SDS011;2039;50.894;6.888;2023-06-14T02:22:56;74.13;;;14.47;;
4049;SDS011;2039;50.894;6.888;2023-06-14T02:25:25;76.30;;;14.77;;
4049;SDS011;2039;50.894;6.888;2023-06-14T02:27:52;74.07;;;14.50;;
4049;SDS011;2039;50.894;6.888;2023-06-14T02:30:20;76.20;;;15.53;;
4049;SDS011;2039;50.894;6.888;2023-06-14T02:32:45;77.50;;;16.63;;
4049;SDS011;2039;50.894;6.888;2023-06-14T02:35:13;75.53;;;14.90;;
4049;SDS011;2039;50.894;6.888;2023-06-14T02:37:39;75.20;;;15.60;;
4049;SDS011;2039;50.894;6.888;2023-06-14T02:40:06;77.80;;;15.80;;
4049;SDS011;2039;50.894;6.888;2023-06-14T02:42:34;76.50;;;14.37;;
4049;SDS011;2039;50.894;6.888;2023-06-14T02:44:59;75.17;;;14.33;;
4049;SDS011;2039;50.894;6.888;2023-06-14T02:47:27;75.70;;;15.67;;
4049;SDS011;2039;50.894;6.888;2023-06-14T02:49:53;77.30;;;17.10;;
4049;SDS011;2039;50.894;6.888;2023-06-14T02:52:21;76.00;;;15.37;;
4049;SDS011;2039;50.894;6.888;2023-06-14T02:54:47;75.47;;;15.50;;
4049;SDS011;2039;50.894;6.888;2023-06-14T02:57:12;72.97;;;13.67;;
4049;SDS011;2039;50.894;6.888;2023-06-14T02:59:38;76.73;;;14.87;;
4049;SDS011;2039;50.894;6.888;2023-06-14T03:02:04;75.80;;;15.30;;
4049;SDS011;2039;50.894;6.888;2023-06-14T03:04:30;74.70;;;14.07;;
4049;SDS011;2039;50.894;6.888;2023-06-14T03:06:59;73.73;;;12.03;;
4049;SDS011;2039;50.894;6.888;2023-06-14T03:09:27;74.40;;;13.23;;
4049;SDS011;2039;50.894;6.888;2023-06-14T03:11:53;75.10;;;13.00;;
4049;SDS011;2039;50.894;6.888;2023-06-14T03:14:19;77.33;;;13.40;;
4049;SDS011;2039;50.894;6.888;2023-06-14T03:16:46;73.07;;;12.50;;
4049;SDS011;2039;50.894;6.888;2023-06-14T03:19:12;74.40;;;12.27;;
4049;SDS011;2039;50.894;6.888;2023-06-14T03:21:37;73.07;;;12.20;;
4049;SDS011;2039;50.894;6.888;2023-06-14T03:24:08;73.27;;;11.40;;
4049;SDS011;2039;50.894;6.888;2023-06-14T03:26:34;72.93;;;12.17;;
4049;SDS011;2039;50.894;6.888;2023-06-14T03:29:02;73.60;;;11.87;;
4049;SDS011;2039;50.894;6.888;2023-06-14T03:31:28;75.20;;;12.70;;
4049;SDS011;2039;50.894;6.888;2023-06-14T03:34:00;75.10;;;12.23;;
4049;SDS011;2039;50.894;6.888;2023-06-14T03:36:27;73.50;;;11.50;;
4049;SDS011;2039;50.894;6.888;2023-06-14T03:38:53;75.57;;;11.90;;
4049;SDS011;2039;50.894;6.888;2023-06-14T03:41:19;73.13;;;11.47;;
4049;SDS011;2039;50.894;6.888;2023-06-14T03:43:45;76.30;;;11.10;;
4049;SDS011;2039;50.894;6.888;2023-06-14T03:46:11;72.90;;;11.50;;
4049;SDS011;2039;50.894;6.888;2023-06-14T03:48:37;76.90;;;11.50;;
4049;SDS011;2039;50.894;6.888;2023-06-14T03:51:03;73.53;;;11.63;;
4049;SDS011;2039;50.894;6.888;2023-06-14T03:53:30;74.67;;;11.87;;
4049;SDS011;2039;50.894;6.888;2023-06-14T03:55:55;72.50;;;10.70;;
4049;SDS011;2039;50.894;6.888;2023-06-14T04:00:55;74.20;;;10.80;;
4049;SDS011;2039;50.894;6.888;2023-06-14T04:03:21;74.00;;;12.00;;
4049;SDS011;2039;50.894;6.888;2023-06-14T04:05:48;73.17;;;11.10;;
4049;SDS011;2039;50.894;6.888;2023-06-14T04:08:14;74.57;;;11.20;;
4049;SDS011;2039;50.894;6.888;2023-06-14T04:10:41;76.70;;;11.03;;
4049;SDS011;2039;50.894;6.888;2023-06-14T04:13:07;72.07;;;10.10;;
4049;SDS011;2039;50.894;6.888;2023-06-14T04:15:32;72.47;;;9.67;;
4049;SDS011;2039;50.894;6.888;2023-06-14T04:17:58;79.13;;;10.00;;
4049;SDS011;2039;50.894;6.888;2023-06-14T04:20:25;72.10;;;9.40;;
4049;SDS011;2039;50.894;6.888;2023-06-14T04:22:51;72.77;;;9.33;;
4049;SDS011;2039;50.894;6.888;2023-06-14T04:25:18;72.70;;;8.80;;
4049;SDS011;2039;50.894;6.888;2023-06-14T04:27:43;73.07;;;9.20;;
4049;SDS011;2039;50.894;6.888;2023-06-14T04:30:09;72.10;;;8.80;;
4049;SDS011;2039;50.894;6.888;2023-06-14T04:32:35;71.97;;;9.50;;
4049;SDS011;2039;50.894;6.888;2023-06-14T04:35:04;72.90;;;9.07;;
4049;SDS011;2039;50.894;6.888;2023-06-14T04:37:33;74.17;;;10.87;;
4049;SDS011;2039;50.894;6.888;2023-06-14T04:39:59;73.27;;;9.40;;
4049;SDS011;2039;50.894;6.888;2023-06-14T04:42:25;74.87;;;10.70;;
4049;SDS011;2039;50.894;6.888;2023-06-14T04:44:56;76.67;;;10.37;;
4049;SDS011;2039;50.894;6.888;2023-06-14T04:47:22;75.97;;;9.90;;
4049;SDS011;2039;50.894;6.888;2023-06-14T04:49:55;72.87;;;8.80;;
4049;SDS011;2039;50.894;6.888;2023-06-14T04:52:22;73.93;;;11.53;;
4049;SDS011;2039;50.894;6.888;2023-06-14T04:54:48;74.50;;;11.80;;
4049;SDS011;2039;50.894;6.888;2023-06-14T04:57:13;75.27;;;9.60;;
4049;SDS011;2039;50.894;6.888;2023-06-14T04:59:42;72.30;;;9.70;;
4049;SDS011;2039;50.894;6.888;2023-06-14T05:02:09;73.70;;;10.17;;
4049;SDS011;2039;50.894;6.888;2023-06-14T05:04:35;75.27;;;7.57;;
4049;SDS011;2039;50.894;6.888;2023-06-14T05:07:04;71.40;;;7.50;;
4049;SDS011;2039;50.894;6.888;2023-06-14T05:09:31;75.07;;;7.27;;
4049;SDS011;2039;50.894;6.888;2023-06-14T05:11:58;74.63;;;6.80;;
4049;SDS011;2039;50.894;6.888;2023-06-14T05:14:25;74.23;;;6.37;;
4049;SDS011;2039;50.894;6.888;2023-06-14T05:16:51;71.40;;;6.33;;
4049;SDS011;2039;50.894;6.888;2023-06-14T05:19:18;72.60;;;6.10;;
4049;SDS011;2039;50.894;6.888;2023-06-14T05:21:45;73.10;;;6.60;;
4049;SDS011;2039;50.894;6.888;2023-06-14T05:24:12;71.37;;;6.17;;
4049;SDS011;2039;50.894;6.888;2023-06-14T05:26:39;71.37;;;6.47;;
4049;SDS011;2039;50.894;6.888;2023-06-14T05:29:05;75.00;;;7.03;;
4049;SDS011;2039;50.894;6.888;2023-06-14T05:31:30;73.17;;;6.70;;
4049;SDS011;2039;50.894;6.888;2023-06-14T05:33:56;72.43;;;7.40;;
4049;SDS011;2039;50.894;6.888;2023-06-14T05:36:22;72.30;;;6.77;;
4049;SDS011;2039;50.894;6.888;2023-06-14T05:38:47;76.40;;;7.93;;
4049;SDS011;2039;50.894;6.888;2023-06-14T05:41:13;74.10;;;7.13;;
4049;SDS011;2039;50.894;6.888;2023-06-14T05:43:39;76.30;;;7.30;;
4049;SDS011;2039;50.894;6.888;2023-06-14T05:46:05;70.57;;;6.67;;
4049;SDS011;2039;50.894;6.888;2023-06-14T05:48:31;75.93;;;7.20;;
4049;SDS011;2039;50.894;6.888;2023-06-14T05:50:57;71.50;;;6.20;;
4049;SDS011;2039;50.894;6.888;2023-06-14T05:53:23;73.20;;;6.83;;
4049;SDS011;2039;50.894;6.888;2023-06-14T05:55:49;71.07;;;6.00;;
4049;SDS011;2039;50.894;6.888;2023-06-14T05:58:18;72.80;;;8.00;;
4049;SDS011;2039;50.894;6.888;2023-06-14T06:00:44;72.00;;;6.97;;
4049;SDS011;2039;50.894;6.888;2023-06-14T06:03:10;71.97;;;6.57;;
4049;SDS011;2039;50.894;6.888;2023-06-14T06:05:38;73.13;;;7.30;;
4049;SDS011;2039;50.894;6.888;2023-06-14T06:08:04;70.60;;;5.57;;
4049;SDS011;2039;50.894;6.888;2023-06-14T06:10:30;71.27;;;5.90;;
4049;SDS011;2039;50.894;6.888;2023-06-14T06:12:55;70.93;;;5.93;;
4049;SDS011;2039;50.894;6.888;2023-06-14T06:15:21;71.00;;;5.37;;
4049;SDS011;2039;50.894;6.888;2023-06-14T06:17:47;72.50;;;5.93;;
4049;SDS011;2039;50.894;6.888;2023-06-14T06:20:12;72.97;;;7.17;;
4049;SDS011;2039;50.894;6.888;2023-06-14T06:22:38;74.37;;;5.87;;
4049;SDS011;2039;50.894;6.888;2023-06-14T06:25:04;72.77;;;6.33;;
4049;SDS011;2039;50.894;6.888;2023-06-14T06:27:31;72.10;;;5.30;;
4049;SDS011;2039;50.894;6.888;2023-06-14T06:29:57;71.83;;;6.00;;
4049;SDS011;2039;50.894;6.888;2023-06-14T06:32:23;69.40;;;5.40;;
4049;SDS011;2039;50.894;6.888;2023-06-14T06:34:48;71.07;;;5.80;;
4049;SDS011;2039;50.894;6.888;2023-06-14T06:37:15;71.60;;;6.60;;
4049;SDS011;2039;50.894;6.888;2023-06-14T06:39:41;69.93;;;5.70;;
4049;SDS011;2039;50.894;6.888;2023-06-14T06:42:06;74.77;;;8.47;;
4049;SDS011;2039;50.894;6.888;2023-06-14T06:44:32;72.47;;;7.30;;
4049;SDS011;2039;50.894;6.888;2023-06-14T06:46:58;69.40;;;5.70;;
4049;SDS011;2039;50.894;6.888;2023-06-14T06:49:24;71.03;;;5.90;;
4049;SDS011;2039;50.894;6.888;2023-06-14T06:52:03;72.53;;;6.90;;
4049;SDS011;2039;50.894;6.888;2023-06-14T06:54:30;72.50;;;7.70;;
4049;SDS011;2039;50.894;6.888;2023-06-14T06:56:56;72.10;;;9.13;;
4049;SDS011;2039;50.894;6.888;2023-06-14T06:59:22;70.57;;;5.90;;
4049;SDS011;2039;50.894;6.888;2023-06-14T07:01:48;70.43;;;7.30;;
4049;SDS011;2039;50.894;6.888;2023-06-14T07:04:14;72.20;;;6.60;;
4049;SDS011;2039;50.894;6.888;2023-06-14T07:06:41;73.27;;;6.30;;
4049;SDS011;2039;50.894;6.888;2023-06-14T07:09:07;70.03;;;5.70;;
4049;SDS011;2039;50.894;6.888;2023-06-14T07:11:37;75.30;;;5.47;;
4049;SDS011;2039;50.894;6.888;2023-06-14T07:14:04;73.53;;;6.17;;
4049;SDS011;2039;50.894;6.888;2023-06-14T07:16:29;70.80;;;5.07;;
4049;SDS011;2039;50.894;6.888;2023-06-14T07:18:55;71.20;;;5.03;;
4049;SDS011;2039;50.894;6.888;2023-06-14T07:21:21;75.03;;;6.03;;
4049;SDS011;2039;50.894;6.888;2023-06-14T07:23:47;71.13;;;5.07;;
4049;SDS011;2039;50.894;6.888;2023-06-14T07:26:12;71.97;;;5.77;;
4049;SDS011;2039;50.894;6.888;2023-06-14T07:28:38;70.90;;;5.97;;
4049;SDS011;2039;50.894;6.888;2023-06-14T07:31:04;70.37;;;5.10;;
4049;SDS011;2039;50.894;6.888;2023-06-14T07:33:30;73.13;;;5.37;;
4049;SDS011;2039;50.894;6.888;2023-06-14T07:35:55;71.30;;;5.60;;
4049;SDS011;2039;50.894;6.888;2023-06-14T07:38:22;80.30;;;5.60;;
4049;SDS011;2039;50.894;6.888;2023-06-14T07:40:48;71.03;;;5.10;;
4049;SDS011;2039;50.894;6.888;2023-06-14T07:43:13;70.90;;;5.17;;
4049;SDS011;2039;50.894;6.888;2023-06-14T07:45:39;70.43;;;4.80;;
4049;SDS011;2039;50.894;6.888;2023-06-14T07:48:05;70.37;;;4.70;;
4049;SDS011;2039;50.894;6.888;2023-06-14T07:50:31;68.80;;;5.07;;
4049;SDS011;2039;50.894;6.888;2023-06-14T07:52:57;70.93;;;4.93;;
4049;SDS011;2039;50.894;6.888;2023-06-14T07:55:23;70.87;;;5.17;;
4049;SDS011;2039;50.894;6.888;2023-06-14T07:57:50;70.60;;;4.57;;
4049;SDS011;2039;50.894;6.888;2023-06-14T08:00:16;70.97;;;4.80;;
4049;SDS011;2039;50.894;6.888;2023-06-14T08:02:43;70.57;;;5.60;;
4049;SDS011;2039;50.894;6.888;2023-06-14T08:05:10;69.43;;;4.10;;
4049;SDS011;2039;50.894;6.888;2023-06-14T08:07:36;68.67;;;4.40;;
4049;SDS011;2039;50.894;6.888;2023-06-14T08:10:02;71.20;;;4.53;;
4049;SDS011;2039;50.894;6.888;2023-06-14T08:12:29;70.70;;;4.77;;
4049;SDS011;2039;50.894;6.888;2023-06-14T08:14:55;69.00;;;4.07;;
4049;SDS011;2039;50.894;6.888;2023-06-14T08:17:20;69.93;;;4.60;;
4049;SDS011;2039;50.894;6.888;2023-06-14T08:19:46;69.00;;;4.43;;
4049;SDS011;2039;50.894;6.888;2023-06-14T08:22:11;72.67;;;4.80;;
4049;SDS011;2039;50.894;6.888;2023-06-14T08:24:37;72.63;;;5.10;;
4049;SDS011;2039;50.894;6.888;2023-06-14T08:27:05;70.17;;;6.83;;
4049;SDS011;2039;50.894;6.888;2023-06-14T08:29:31;68.50;;;4.30;;
4049;SDS011;2039;50.894;6.888;2023-06-14T08:31:57;69.37;;;4.73;;
4049;SDS011;2039;50.894;6.888;2023-06-14T08:34:23;68.80;;;4.47;;
4049;SDS011;2039;50.894;6.888;2023-06-14T08:36:49;68.90;;;4.00;;
4049;SDS011;2039;50.894;6.888;2023-06-14T08:39:15;69.90;;;3.80;;
4049;SDS011;2039;50.894;6.888;2023-06-14T08:41:43;71.03;;;3.80;;
4049;SDS011;2039;50.894;6.888;2023-06-14T08:44:12;69.40;;;3.90;;
4049;SDS011;2039;50.894;6.888;2023-06-14T08:46:37;68.57;;;3.40;;
4049;SDS011;2039;50.894;6.888;2023-06-14T08:49:04;69.27;;;3.37;;
4049;SDS011;2039;50.894;6.888;2023-06-14T08:51:31;69.63;;;3.10;;
4049;SDS011;2039;50.894;6.888;2023-06-14T08:54:01;68.30;;;3.03;;
4049;SDS011;2039;50.894;6.888;2023-06-14T08:56:29;68.50;;;3.13;;
4049;SDS011;2039;50.894;6.888;2023-06-14T08:58:59;68.63;;;3.23;;
4049;SDS011;2039;50.894;6.888;2023-06-14T09:01:34;69.20;;;3.07;;
4049;SDS011;2039;50.894;6.888;2023-06-14T09:04:01;69.53;;;4.13;;
4049;SDS011;2039;50.894;6.888;2023-06-14T09:06:27;69.30;;;4.50;;
4049;SDS011;2039;50.894;6.888;2023-06-14T09:08:54;69.33;;;3.17;;
4049;SDS011;2039;50.894;6.888;2023-06-14T09:11:22;69.73;;;3.33;;
4049;SDS011;2039;50.894;6.888;2023-06-14T09:13:48;67.90;;;3.00;;
4049;SDS011;2039;50.894;6.888;2023-06-14T09:16:14;69.77;;;3.50;;
4049;SDS011;2039;50.894;6.888;2023-06-14T09:18:45;69.70;;;3.20;;
4049;SDS011;2039;50.894;6.888;2023-06-14T09:21:13;69.30;;;3.00;;
4049;SDS011;2039;50.894;6.888;2023-06-14T09:23:41;71.90;;;3.40;;
4049;SDS011;2039;50.894;6.888;2023-06-14T09:26:11;69.53;;;3.67;;
4049;SDS011;2039;50.894;6.888;2023-06-14T09:28:44;69.07;;;3.07;;
4049;SDS011;2039;50.894;6.888;2023-06-14T09:31:14;69.67;;;3.10;;
4049;SDS011;2039;50.894;6.888;2023-06-14T09:33:42;68.70;;;3.10;;
4049;SDS011;2039;50.894;6.888;2023-06-14T09:36:18;69.97;;;3.20;;
4049;SDS011;2039;50.894;6.888;2023-06-14T09:38:54;69.30;;;3.60;;
4049;SDS011;2039;50.894;6.888;2023-06-14T09:41:33;69.93;;;3.70;;
4049;SDS011;2039;50.894;6.888;2023-06-14T09:44:04;69.13;;;3.57;;
4049;SDS011;2039;50.894;6.888;2023-06-14T09:46:33;69.37;;;3.97;;
4049;SDS011;2039;50.894;6.888;2023-06-14T09:48:59;69.27;;;3.60;;
4049;SDS011;2039;50.894;6.888;2023-06-14T09:51:26;69.27;;;3.70;;
4049;SDS011;2039;50.894;6.888;2023-06-14T09:53:56;69.87;;;4.30;;
4049;SDS011;2039;50.894;6.888;2023-06-14T09:56:29;69.87;;;4.00;;
4049;SDS011;2039;50.894;6.888;2023-06-14T09:58:57;70.25;;;4.45;;
4049;SDS011;2039;50.894;6.888;2023-06-14T10:01:25;69.87;;;4.37;;
4049;SDS011;2039;50.894;6.888;2023-06-14T10:04:06;69.17;;;3.90;;
4049;SDS011;2039;50.894;6.888;2023-06-14T10:06:34;68.70;;;3.50;;
4049;SDS011;2039;50.894;6.888;2023-06-14T10:09:02;71.87;;;3.93;;
4049;SDS011;2039;50.894;6.888;2023-06-14T10:11:30;69.77;;;3.37;;
4049;SDS011;2039;50.894;6.888;2023-06-14T10:13:57;72.27;;;3.57;;
4049;SDS011;2039;50.894;6.888;2023-06-14T10:16:28;69.00;;;3.37;;
4049;SDS011;2039;50.894;6.888;2023-06-14T10:21:28;69.87;;;3.70;;
4049;SDS011;2039;50.894;6.888;2023-06-14T10:24:03;69.30;;;3.60;;
4049;SDS011;2039;50.894;6.888;2023-06-14T10:26:32;69.67;;;2.90;;
4049;SDS011;2039;50.894;6.888;2023-06-14T10:29:07;73.60;;;3.50;;
4049;SDS011;2039;50.894;6.888;2023-06-14T10:31:40;69.67;;;2.83;;
4049;SDS011;2039;50.894;6.888;2023-06-14T10:34:11;71.37;;;3.10;;
4049;SDS011;2039;50.894;6.888;2023-06-14T10:36:38;69.50;;;2.80;;
4049;SDS011;2039;50.894;6.888;2023-06-14T10:39:07;68.87;;;2.90;;
4049;SDS011;2039;50.894;6.888;2023-06-14T10:41:40;68.90;;;2.87;;
4049;SDS011;2039;50.894;6.888;2023-06-14T10:46:39;69.80;;;3.00;;
4049;SDS011;2039;50.894;6.888;2023-06-14T10:49:05;69.43;;;2.73;;
4049;SDS011;2039;50.894;6.888;2023-06-14T10:51:38;68.87;;;2.90;;
4049;SDS011;2039;50.894;6.888;2023-06-14T10:54:13;69.03;;;3.10;;
4049;SDS011;2039;50.894;6.888;2023-06-14T10:56:46;73.20;;;3.67;;
4049;SDS011;2039;50.894;6.888;2023-06-14T10:59:13;69.60;;;2.50;;
4049;SDS011;2039;50.894;6.888;2023-06-14T11:04:41;69.37;;;2.73;;
4049;SDS011;2039;50.894;6.888;2023-06-14T11:13:05;69.37;;;3.00;;
4049;SDS011;2039;50.894;6.888;2023-06-14T11:15:34;70.47;;;2.90;;
4049;SDS011;2039;50.894;6.888;2023-06-14T11:18:05;71.07;;;3.10;;
4049;SDS011;2039;50.894;6.888;2023-06-14T11:20:33;69.17;;;2.90;;
4049;SDS011;2039;50.894;6.888;2023-06-14T11:23:00;70.37;;;3.00;;
4049;SDS011;2039;50.894;6.888;2023-06-14T11:25:27;71.20;;;3.37;;
4049;SDS011;2039;50.894;6.888;2023-06-14T11:27:53;68.50;;;2.63;;
4049;SDS011;2039;50.894;6.888;2023-06-14T11:30:19;69.10;;;2.50;;
4049;SDS011;2039;50.894;6.888;2023-06-14T11:32:48;69.50;;;3.10;;
4049;SDS011;2039;50.894;6.888;2023-06-14T11:35:15;69.50;;;2.70;;
4049;SDS011;2039;50.894;6.888;2023-06-14T11:37:42;68.80;;;3.10;;
4049;SDS011;2039;50.894;6.888;2023-06-14T11:40:09;68.77;;;3.30;;
4049;SDS011;2039;50.894;6.888;2023-06-14T11:42:37;69.03;;;3.20;;
4049;SDS011;2039;50.894;6.888;2023-06-14T11:45:03;68.47;;;2.93;;
4049;SDS011;2039;50.894;6.888;2023-06-14T11:47:33;68.53;;;3.07;;
4049;SDS011;2039;50.894;6.888;2023-06-14T11:50:02;68.90;;;2.53;;
4049;SDS011;2039;50.894;6.888;2023-06-14T11:52:30;69.60;;;3.53;;
4049;SDS011;2039;50.894;6.888;2023-06-14T11:54:56;69.77;;;2.40;;
4049;SDS011;2039;50.894;6.888;2023-06-14T11:57:23;68.73;;;3.10;;
4049;SDS011;2039;50.894;6.888;2023-06-14T11:59:49;69.10;;;3.07;;
4049;SDS011;2039;50.894;6.888;2023-06-14T12:02:15;69.00;;;2.83;;
4049;SDS011;2039;50.894;6.888;2023-06-14T12:04:48;70.57;;;3.17;;
4049;SDS011;2039;50.894;6.888;2023-06-14T12:07:14;69.90;;;2.80;;
4049;SDS011;2039;50.894;6.888;2023-06-14T12:09:42;74.13;;;3.10;;
4049;SDS011;2039;50.894;6.888;2023-06-14T12:12:24;68.30;;;3.03;;
4049;SDS011;2039;50.894;6.888;2023-06-14T12:14:54;69.20;;;3.37;;
4049;SDS011;2039;50.894;6.888;2023-06-14T12:17:21;69.37;;;3.83;;
4049;SDS011;2039;50.894;6.888;2023-06-14T12:19:48;69.47;;;3.60;;
4049;SDS011;2039;50.894;6.888;2023-06-14T12:22:15;68.30;;;2.87;;
4049;SDS011;2039;50.894;6.888;2023-06-14T12:24:44;68.57;;;3.13;;
4049;SDS011;2039;50.894;6.888;2023-06-14T12:27:11;67.50;;;2.40;;
4049;SDS011;2039;50.894;6.888;2023-06-14T12:29:41;68.90;;;3.20;;
4049;SDS011;2039;50.894;6.888;2023-06-14T12:32:10;68.57;;;2.90;;
4049;SDS011;2039;50.894;6.888;2023-06-14T12:34:36;68.60;;;3.07;;
4049;SDS011;2039;50.894;6.888;2023-06-14T12:37:05;69.47;;;2.97;;
4049;SDS011;2039;50.894;6.888;2023-06-14T12:39:31;68.20;;;2.90;;
4049;SDS011;2039;50.894;6.888;2023-06-14T12:42:00;69.83;;;2.80;;
4049;SDS011;2039;50.894;6.888;2023-06-14T12:44:29;69.40;;;2.90;;
4049;SDS011;2039;50.894;6.888;2023-06-14T12:46:54;69.17;;;4.10;;
4049;SDS011;2039;50.894;6.888;2023-06-14T12:49:20;69.40;;;3.80;;
4049;SDS011;2039;50.894;6.888;2023-06-14T12:51:46;70.00;;;2.80;;
4049;SDS011;2039;50.894;6.888;2023-06-14T12:54:11;67.70;;;2.50;;
4049;SDS011;2039;50.894;6.888;2023-06-14T12:56:37;68.20;;;2.80;;
4049;SDS011;2039;50.894;6.888;2023-06-14T12:59:08;69.47;;;3.90;;
4049;SDS011;2039;50.894;6.888;2023-06-14T13:01:33;68.27;;;3.13;;
4049;SDS011;2039;50.894;6.888;2023-06-14T13:04:04;69.10;;;3.70;;
4049;SDS011;2039;50.894;6.888;2023-06-14T13:06:29;70.10;;;3.53;;
4049;SDS011;2039;50.894;6.888;2023-06-14T13:08:56;67.63;;;2.40;;
4049;SDS011;2039;50.894;6.888;2023-06-14T13:11:23;67.90;;;2.97;;
4049;SDS011;2039;50.894;6.888;2023-06-14T13:13:50;68.13;;;2.63;;
4049;SDS011;2039;50.894;6.888;2023-06-14T13:16:15;68.83;;;2.57;;
4049;SDS011;2039;50.894;6.888;2023-06-14T13:18:41;69.10;;;2.70;;
4049;SDS011;2039;50.894;6.888;2023-06-14T13:21:07;68.90;;;2.50;;
4049;SDS011;2039;50.894;6.888;2023-06-14T13:23:32;68.37;;;2.20;;
4049;SDS011;2039;50.894;6.888;2023-06-14T13:26:00;67.73;;;2.23;;
4049;SDS011;2039;50.894;6.888;2023-06-14T13:28:26;73.40;;;2.87;;
4049;SDS011;2039;50.894;6.888;2023-06-14T13:30:59;68.40;;;2.40;;
4049;SDS011;2039;50.894;6.888;2023-06-14T13:33:44;71.03;;;2.90;;
4049;SDS011;2039;50.894;6.888;2023-06-14T13:36:13;68.07;;;2.20;;
4049;SDS011;2039;50.894;6.888;2023-06-14T13:38:38;68.47;;;2.47;;
4049;SDS011;2039;50.894;6.888;2023-06-14T13:41:09;68.67;;;2.70;;
4049;SDS011;2039;50.894;6.888;2023-06-14T13:43:35;68.20;;;2.63;;
4049;SDS011;2039;50.894;6.888;2023-06-14T13:46:00;69.20;;;2.50;;
4049;SDS011;2039;50.894;6.888;2023-06-14T13:48:26;68.43;;;3.17;;
4049;SDS011;2039;50.894;6.888;2023-06-14T13:50:52;68.00;;;2.80;;
4049;SDS011;2039;50.894;6.888;2023-06-14T13:53:18;67.67;;;3.00;;
4049;SDS011;2039;50.894;6.888;2023-06-14T13:55:44;68.50;;;3.43;;
4049;SDS011;2039;50.894;6.888;2023-06-14T13:58:10;69.60;;;3.57;;
4049;SDS011;2039;50.894;6.888;2023-06-14T14:00:35;69.40;;;3.20;;
4049;SDS011;2039;50.894;6.888;2023-06-14T14:03:05;73.17;;;3.40;;
4049;SDS011;2039;50.894;6.888;2023-06-14T14:05:31;69.23;;;3.37;;
4049;SDS011;2039;50.894;6.888;2023-06-14T14:07:57;69.07;;;3.53;;
4049;SDS011;2039;50.894;6.888;2023-06-14T14:10:24;73.30;;;3.13;;
4049;SDS011;2039;50.894;6.888;2023-06-14T14:12:53;69.40;;;3.40;;
4049;SDS011;2039;50.894;6.888;2023-06-14T14:15:19;70.67;;;3.73;;
4049;SDS011;2039;50.894;6.888;2023-06-14T14:17:45;68.97;;;3.90;;
4049;SDS011;2039;50.894;6.888;2023-06-14T14:20:12;69.30;;;3.50;;
4049;SDS011;2039;50.894;6.888;2023-06-14T14:22:40;70.50;;;3.70;;
4049;SDS011;2039;50.894;6.888;2023-06-14T14:25:07;69.57;;;3.80;;
4049;SDS011;2039;50.894;6.888;2023-06-14T14:27:33;69.37;;;4.00;;
4049;SDS011;2039;50.894;6.888;2023-06-14T14:29:59;69.83;;;3.70;;
4049;SDS011;2039;50.894;6.888;2023-06-14T14:32:24;68.70;;;3.80;;
4049;SDS011;2039;50.894;6.888;2023-06-14T14:34:50;68.70;;;3.50;;
4049;SDS011;2039;50.894;6.888;2023-06-14T14:37:16;69.47;;;4.20;;
4049;SDS011;2039;50.894;6.888;2023-06-14T14:39:43;72.40;;;3.97;;
4049;SDS011;2039;50.894;6.888;2023-06-14T14:42:09;68.40;;;3.40;;
4049;SDS011;2039;50.894;6.888;2023-06-14T14:44:37;69.27;;;3.57;;
4049;SDS011;2039;50.894;6.888;2023-06-14T14:47:03;69.47;;;4.00;;
4049;SDS011;2039;50.894;6.888;2023-06-14T14:49:29;69.43;;;3.90;;
4049;SDS011;2039;50.894;6.888;2023-06-14T14:51:55;68.90;;;4.00;;
4049;SDS011;2039;50.894;6.888;2023-06-14T14:54:21;69.67;;;4.03;;
4049;SDS011;2039;50.894;6.888;2023-06-14T14:56:48;72.20;;;3.70;;
4049;SDS011;2039;50.894;6.888;2023-06-14T14:59:14;69.90;;;3.90;;
4049;SDS011;2039;50.894;6.888;2023-06-14T15:01:39;72.43;;;3.23;;
4049;SDS011;2039;50.894;6.888;2023-06-14T15:04:05;70.10;;;3.13;;
4049;SDS011;2039;50.894;6.888;2023-06-14T15:06:31;68.17;;;3.20;;
4049;SDS011;2039;50.894;6.888;2023-06-14T15:08:57;68.30;;;3.60;;
4049;SDS011;2039;50.894;6.888;2023-06-14T15:11:23;68.80;;;3.00;;
4049;SDS011;2039;50.894;6.888;2023-06-14T15:13:48;68.60;;;4.07;;
4049;SDS011;2039;50.894;6.888;2023-06-14T15:16:14;68.83;;;3.63;;
4049;SDS011;2039;50.894;6.888;2023-06-14T15:18:40;68.30;;;3.70;;
4049;SDS011;2039;50.894;6.888;2023-06-14T15:21:05;73.47;;;4.00;;
4049;SDS011;2039;50.894;6.888;2023-06-14T15:23:31;69.50;;;3.87;;